createdAt,value
2018-08-23T04:00:38.495Z,14.42
2018-08-23T04:01:38.458Z,14.42
2018-08-23T04:02:38.448Z,14.31
2018-08-23T04:03:38.476Z,14.30
2018-08-23T04:04:38.439Z,14.24
2018-08-23T04:05:38.414Z,14.35
2018-08-23T04:06:38.440Z,14.31
2018-08-23T04:07:38.415Z,14.29
2018-08-23T04:08:38.398Z,14.29
2018-08-23T04:09:38.370Z,14.30
2018-08-23T04:10:38.363Z,14.23
2018-08-23T04:11:38.350Z,14.16
2018-08-23T04:12:38.333Z,14.21
2018-08-23T04:13:38.333Z,14.19
2018-08-23T04:14:38.340Z,14.23
2018-08-23T04:15:38.298Z,14.24
2018-08-23T04:16:38.360Z,14.27
2018-08-23T04:17:38.282Z,14.30
2018-08-23T04:18:38.307Z,14.24
2018-08-23T04:19:38.257Z,14.29
2018-08-23T04:20:38.260Z,14.24
2018-08-23T04:21:38.232Z,14.29
2018-08-23T04:22:38.227Z,14.29
2018-08-23T04:23:38.224Z,14.27
2018-08-23T04:24:38.200Z,14.29
2018-08-23T04:25:38.187Z,14.30
2018-08-23T04:26:38.185Z,14.34
2018-08-23T04:27:38.165Z,14.30
2018-08-23T04:28:38.167Z,14.29
2018-08-23T04:29:38.143Z,14.29
2018-08-23T04:30:38.138Z,14.27
2018-08-23T04:31:38.125Z,14.29
2018-08-23T04:32:38.112Z,14.24
2018-08-23T04:33:38.113Z,14.31
2018-08-23T04:34:38.089Z,14.19
2018-08-23T04:35:38.086Z,14.19
2018-08-23T04:36:38.067Z,14.23
2018-08-23T04:37:38.059Z,14.27
2018-08-23T04:38:38.058Z,14.23
2018-08-23T04:39:38.034Z,14.21
2018-08-23T04:40:38.022Z,14.21
2018-08-23T04:41:38.012Z,14.19
2018-08-23T04:42:38.009Z,14.21
2018-08-23T04:43:38.004Z,14.16
2018-08-23T04:44:37.980Z,14.17
2018-08-23T04:45:37.966Z,14.17
2018-08-23T04:46:37.956Z,14.16
2018-08-23T04:47:37.945Z,14.24
2018-08-23T04:48:37.948Z,14.29
2018-08-23T04:49:37.931Z,14.21
2018-08-23T04:50:37.920Z,14.27
2018-08-23T04:51:37.927Z,14.30
2018-08-23T04:52:37.889Z,14.26
2018-08-23T04:53:37.889Z,14.26
2018-08-23T04:54:37.885Z,14.30
2018-08-23T04:55:37.890Z,14.30
2018-08-23T04:56:37.849Z,14.29
2018-08-23T04:57:37.837Z,14.30
2018-08-23T04:58:37.835Z,14.31
2018-08-23T04:59:37.812Z,14.31
2018-08-23T05:00:37.801Z,14.30
2018-08-23T05:01:37.793Z,14.31
2018-08-23T05:02:37.785Z,14.29
2018-08-23T05:03:37.781Z,14.36
2018-08-23T05:04:37.758Z,14.48
2018-08-23T05:05:37.744Z,14.34
2018-08-23T05:06:37.733Z,14.44
2018-08-23T05:07:37.725Z,14.44
2018-08-23T05:08:37.766Z,14.39
2018-08-23T05:09:37.702Z,14.38
2018-08-23T05:10:37.693Z,14.39
2018-08-23T05:11:37.684Z,14.49
2018-08-23T05:12:37.672Z,14.49
2018-08-23T05:13:37.668Z,14.49
2018-08-23T05:14:37.645Z,14.49
2018-08-23T05:15:37.633Z,14.48
2018-08-23T05:16:37.627Z,14.52
2018-08-23T05:17:37.614Z,14.52
2018-08-23T05:18:37.616Z,14.53
2018-08-23T05:19:37.594Z,14.53
2018-08-23T05:20:37.578Z,14.64
2018-08-23T05:21:37.572Z,14.54
2018-08-23T05:22:37.565Z,14.54
2018-08-23T05:23:37.557Z,14.54
2018-08-23T05:24:37.542Z,14.52
2018-08-23T05:25:37.533Z,14.48
2018-08-23T05:26:37.512Z,14.49
2018-08-23T05:27:37.506Z,14.54
2018-08-23T05:28:37.509Z,14.57
2018-08-23T05:29:37.478Z,14.54
2018-08-23T05:30:37.469Z,14.60
2018-08-23T05:31:37.454Z,14.63
2018-08-23T05:32:37.447Z,14.59
2018-08-23T05:33:37.468Z,14.56
2018-08-23T05:34:37.425Z,14.56
2018-08-23T05:35:37.418Z,14.49
2018-08-23T05:36:37.402Z,14.54
2018-08-23T05:37:37.460Z,14.63
2018-08-23T05:38:37.381Z,14.63
2018-08-23T05:39:37.383Z,14.52
2018-08-23T05:40:37.358Z,14.57
2018-08-23T05:41:37.348Z,14.56
2018-08-23T05:42:37.346Z,14.52
2018-08-23T05:43:37.321Z,14.61
2018-08-23T05:44:37.330Z,14.56
2018-08-23T05:45:37.312Z,14.56
2018-08-23T05:46:37.294Z,14.63
2018-08-23T05:47:37.322Z,14.69
2018-08-23T05:48:37.271Z,14.60
2018-08-23T05:49:37.270Z,14.75
2018-08-23T05:50:37.245Z,14.66
2018-08-23T05:51:37.237Z,14.78
2018-08-23T05:52:37.226Z,14.69
2018-08-23T05:53:37.212Z,14.72
2018-08-23T05:54:37.214Z,14.69
2018-08-23T05:55:37.195Z,14.72
2018-08-23T05:56:37.184Z,14.75
2018-08-23T05:57:37.170Z,14.79
2018-08-23T05:58:37.159Z,14.80
2018-08-23T05:59:37.160Z,14.93
2018-08-23T06:00:37.136Z,14.74
2018-08-23T06:01:37.127Z,14.78
2018-08-23T06:02:37.132Z,14.82
2018-08-23T06:03:37.109Z,14.82
2018-08-23T06:04:37.106Z,14.80
2018-08-23T06:05:37.081Z,14.83
2018-08-23T06:06:37.066Z,14.85
2018-08-23T06:07:37.064Z,14.94
2018-08-23T06:08:37.047Z,14.90
2018-08-23T06:09:37.059Z,14.85
2018-08-23T06:10:37.026Z,14.85
2018-08-23T06:11:37.032Z,14.90
2018-08-23T06:12:37.069Z,14.93
2018-08-23T06:13:36.990Z,14.91
2018-08-23T06:14:36.997Z,14.91
2018-08-23T06:15:36.969Z,14.91
2018-08-23T06:16:36.965Z,14.90
2018-08-23T06:17:36.948Z,14.98
2018-08-23T06:18:36.936Z,14.98
2018-08-23T06:19:36.939Z,15.04
2018-08-23T06:20:36.932Z,14.94
2018-08-23T06:21:36.915Z,15.04
2018-08-23T06:22:36.902Z,15.05
2018-08-23T06:23:36.884Z,15.07
2018-08-23T06:24:36.883Z,15.13
2018-08-23T06:25:36.875Z,15.05
2018-08-23T06:26:36.846Z,15.11
2018-08-23T06:27:36.840Z,15.11
2018-08-23T06:28:36.828Z,15.48
2018-08-23T06:29:36.825Z,15.64
2018-08-23T06:30:36.813Z,15.88
2018-08-23T06:31:36.796Z,16.22
2018-08-23T06:32:36.779Z,16.34
2018-08-23T06:33:36.859Z,16.54
2018-08-23T06:34:36.769Z,16.67
2018-08-23T06:35:36.772Z,16.85
2018-08-23T06:36:36.739Z,16.91
2018-08-23T06:37:36.725Z,17.10
2018-08-23T06:38:36.733Z,17.27
2018-08-23T06:39:36.716Z,17.45
2018-08-23T06:40:36.696Z,17.54
2018-08-23T06:41:36.685Z,17.71
2018-08-23T06:42:36.678Z,17.86
2018-08-23T06:43:36.660Z,18.02
2018-08-23T06:44:36.684Z,18.21
2018-08-23T06:45:36.636Z,18.49
2018-08-23T06:46:36.624Z,18.65
2018-08-23T06:47:36.614Z,18.76
2018-08-23T06:48:36.603Z,18.91
2018-08-23T06:49:36.603Z,18.99
2018-08-23T06:50:36.582Z,19.21
2018-08-23T06:51:36.569Z,19.40
2018-08-23T06:52:36.569Z,19.55
2018-08-23T06:53:36.544Z,19.79
2018-08-23T06:54:36.547Z,19.76
2018-08-23T06:55:36.525Z,19.79
2018-08-23T06:56:36.515Z,19.97
2018-08-23T06:57:36.502Z,20.00
2018-08-23T06:58:36.494Z,20.19
2018-08-23T06:59:36.493Z,20.27
2018-08-23T07:00:36.474Z,20.50
2018-08-23T07:01:36.461Z,20.63
2018-08-23T07:02:36.448Z,20.69
2018-08-23T07:03:36.447Z,20.75
2018-08-23T07:04:36.439Z,20.91
2018-08-23T07:05:36.461Z,21.01
2018-08-23T07:06:36.442Z,20.98
2018-08-23T07:07:36.392Z,21.15
2018-08-23T07:08:36.393Z,21.36
2018-08-23T07:09:36.387Z,21.61
2018-08-23T07:10:36.363Z,21.77
2018-08-23T07:11:36.379Z,21.90
2018-08-23T07:12:36.339Z,21.99
2018-08-23T07:13:36.326Z,22.20
2018-08-23T07:14:36.326Z,22.20
2018-08-23T07:15:36.325Z,22.30
2018-08-23T07:16:36.291Z,22.33
2018-08-23T07:17:36.366Z,22.44
2018-08-23T07:18:36.273Z,22.45
2018-08-23T07:19:36.368Z,22.66
2018-08-23T07:20:36.251Z,22.82
2018-08-23T07:21:36.238Z,23.06
2018-08-23T07:22:36.279Z,23.15
2018-08-23T07:23:36.221Z,23.34
2018-08-23T07:24:36.216Z,23.50
2018-08-23T07:25:36.198Z,23.49
2018-08-23T07:26:36.261Z,23.32
2018-08-23T07:27:36.183Z,23.44
2018-08-23T07:28:36.161Z,23.53
2018-08-23T07:29:36.159Z,23.57
2018-08-23T07:30:36.145Z,23.59
2018-08-23T07:31:36.132Z,23.56
2018-08-23T07:32:36.150Z,23.54
2018-08-23T07:33:36.125Z,23.63
2018-08-23T07:34:36.110Z,23.77
2018-08-23T07:35:36.086Z,23.78
2018-08-23T07:36:36.075Z,23.89
2018-08-23T07:37:36.071Z,23.99
2018-08-23T07:38:36.056Z,24.12
2018-08-23T07:39:36.055Z,24.08
2018-08-23T07:40:36.045Z,24.27
2018-08-23T07:41:36.021Z,24.56
2018-08-23T07:42:36.011Z,24.77
2018-08-23T07:43:35.999Z,24.90
2018-08-23T07:44:35.987Z,24.97
2018-08-23T07:45:35.991Z,25.12
2018-08-23T07:46:35.965Z,25.27
2018-08-23T07:47:35.957Z,25.54
2018-08-23T07:48:36.011Z,25.72
2018-08-23T07:49:35.951Z,25.82
2018-08-23T07:50:35.935Z,26.09
2018-08-23T07:51:35.912Z,26.39
2018-08-23T07:52:35.917Z,26.61
2018-08-23T07:53:35.889Z,26.72
2018-08-23T07:54:35.881Z,26.60
2018-08-23T07:55:35.881Z,26.68
2018-08-23T07:56:35.859Z,26.54
2018-08-23T07:57:35.847Z,26.56
2018-08-23T07:58:35.835Z,26.65
2018-08-23T07:59:35.823Z,26.66
2018-08-23T08:00:35.828Z,26.64
2018-08-23T08:01:35.801Z,26.71
2018-08-23T08:02:35.790Z,26.65
2018-08-23T08:03:35.780Z,26.75
2018-08-23T08:04:35.773Z,26.84
2018-08-23T08:05:35.767Z,27.03
2018-08-23T08:06:35.747Z,27.38
2018-08-23T08:07:35.749Z,27.69
2018-08-23T08:08:35.729Z,27.88
2018-08-23T08:09:35.729Z,28.06
2018-08-23T08:10:35.717Z,28.20
2018-08-23T08:11:35.693Z,28.42
2018-08-23T08:12:35.685Z,28.48
2018-08-23T08:13:35.677Z,28.74
2018-08-23T08:14:35.662Z,28.88
2018-08-23T08:15:35.661Z,28.97
2018-08-23T08:16:35.640Z,29.18
2018-08-23T08:17:35.630Z,29.47
2018-08-23T08:18:35.623Z,29.78
2018-08-23T08:19:35.608Z,29.97
2018-08-23T08:20:35.620Z,30.01
2018-08-23T08:21:35.654Z,29.86
2018-08-23T08:22:35.576Z,29.73
2018-08-23T08:23:35.565Z,29.63
2018-08-23T08:24:35.554Z,29.63
2018-08-23T08:25:35.553Z,29.89
2018-08-23T08:26:35.534Z,29.81
2018-08-23T08:27:35.523Z,30.18
2018-08-23T08:28:35.513Z,30.45
2018-08-23T08:29:35.500Z,30.54
2018-08-23T08:30:35.502Z,30.73
2018-08-23T08:31:35.477Z,31.07
2018-08-23T08:32:35.466Z,31.50
2018-08-23T08:33:35.454Z,31.62
2018-08-23T08:34:35.446Z,31.84
2018-08-23T08:35:35.451Z,31.92
2018-08-23T08:36:35.426Z,32.39
2018-08-23T08:37:35.413Z,32.62
2018-08-23T08:38:35.401Z,33.02
2018-08-23T08:39:35.392Z,32.98
2018-08-23T08:40:35.393Z,33.18
2018-08-23T08:41:35.378Z,33.15
2018-08-23T08:42:35.360Z,33.56
2018-08-23T08:43:35.348Z,33.52
2018-08-23T08:44:35.339Z,33.20
2018-08-23T08:45:35.339Z,33.17
2018-08-23T08:46:35.315Z,33.12
2018-08-23T08:47:35.306Z,32.81
2018-08-23T08:48:35.296Z,32.72
2018-08-23T08:49:35.283Z,32.80
2018-08-23T08:50:35.340Z,32.95
2018-08-23T08:51:35.262Z,33.17
2018-08-23T08:52:35.253Z,33.02
2018-08-23T08:53:35.240Z,33.14
2018-08-23T08:54:35.230Z,33.33
2018-08-23T08:55:35.228Z,33.56
2018-08-23T08:56:35.223Z,33.72
2018-08-23T08:57:35.200Z,33.70
2018-08-23T08:58:35.185Z,33.84
2018-08-23T08:59:35.175Z,33.63
2018-08-23T09:00:35.178Z,33.44
2018-08-23T09:01:35.152Z,33.60
2018-08-23T09:02:35.143Z,33.57
2018-08-23T09:03:35.133Z,33.72
2018-08-23T09:04:35.120Z,33.65
2018-08-23T09:05:35.121Z,33.68
2018-08-23T09:06:35.100Z,34.05
2018-08-23T09:07:35.090Z,34.24
2018-08-23T09:08:35.076Z,34.06
2018-08-23T09:09:35.067Z,34.12
2018-08-23T09:10:35.066Z,34.15
2018-08-23T09:11:35.044Z,34.05
2018-08-23T09:12:35.033Z,34.12
2018-08-23T09:13:35.024Z,34.37
2018-08-23T09:14:35.018Z,34.38
2018-08-23T09:15:35.012Z,34.48
2018-08-23T09:16:34.993Z,34.56
2018-08-23T09:17:34.980Z,34.58
2018-08-23T09:18:34.973Z,34.73
2018-08-23T09:19:34.971Z,33.89
2018-08-23T09:20:34.992Z,33.06
2018-08-23T09:21:34.937Z,33.14
2018-08-23T09:22:34.936Z,33.63
2018-08-23T09:23:34.915Z,33.89
2018-08-23T09:24:34.904Z,34.06
2018-08-23T09:25:34.901Z,34.40
2018-08-23T09:26:34.881Z,34.84
2018-08-23T09:27:34.913Z,34.60
2018-08-23T09:28:34.888Z,34.53
2018-08-23T09:29:34.849Z,34.27
2018-08-23T09:30:34.848Z,34.26
2018-08-23T09:31:34.826Z,34.08
2018-08-23T09:32:34.820Z,34.14
2018-08-23T09:33:34.805Z,34.64
2018-08-23T09:34:34.800Z,35.05
2018-08-23T09:35:34.798Z,34.95
2018-08-23T09:36:34.772Z,34.60
2018-08-23T09:37:34.765Z,34.52
2018-08-23T09:38:34.756Z,34.43
2018-08-23T09:39:34.744Z,33.65
2018-08-23T09:40:34.754Z,33.15
2018-08-23T09:41:34.719Z,33.14
2018-08-23T09:42:34.709Z,33.63
2018-08-23T09:43:34.698Z,33.94
2018-08-23T09:44:34.686Z,33.70
2018-08-23T09:45:34.675Z,33.43
2018-08-23T09:46:34.675Z,32.62
2018-08-23T09:47:34.654Z,32.10
2018-08-23T09:48:34.642Z,31.76
2018-08-23T09:49:34.633Z,31.85
2018-08-23T09:50:34.675Z,31.76
2018-08-23T09:51:34.624Z,32.19
2018-08-23T09:52:34.601Z,32.51
2018-08-23T09:53:34.589Z,32.69
2018-08-23T09:54:34.580Z,32.78
2018-08-23T09:55:34.567Z,32.50
2018-08-23T09:56:34.628Z,32.25
2018-08-23T09:57:34.547Z,32.06
2018-08-23T09:58:34.534Z,31.75
2018-08-23T09:59:34.524Z,31.79
2018-08-23T10:00:34.513Z,31.67
2018-08-23T10:01:34.513Z,31.65
2018-08-23T10:02:34.494Z,31.57
2018-08-23T10:03:34.477Z,31.53
2018-08-23T10:04:34.496Z,31.47
2018-08-23T10:05:34.469Z,31.35
2018-08-23T10:06:34.457Z,31.31
2018-08-23T10:07:34.440Z,31.37
2018-08-23T10:08:34.425Z,31.32
2018-08-23T10:09:34.417Z,31.22
2018-08-23T10:10:34.411Z,31.18
2018-08-23T10:11:34.415Z,31.20
2018-08-23T10:12:34.387Z,31.22
2018-08-23T10:13:34.374Z,31.20
2018-08-23T10:14:34.365Z,31.23
2018-08-23T10:15:34.351Z,31.25
2018-08-23T10:16:34.353Z,31.22
2018-08-23T10:17:34.331Z,31.22
2018-08-23T10:18:34.321Z,31.35
2018-08-23T10:19:34.309Z,31.28
2018-08-23T10:20:34.299Z,31.41
2018-08-23T10:21:34.308Z,31.50
2018-08-23T10:22:34.282Z,31.50
2018-08-23T10:23:34.268Z,31.54
2018-08-23T10:24:34.252Z,31.41
2018-08-23T10:25:34.244Z,31.40
2018-08-23T10:26:34.284Z,31.32
2018-08-23T10:27:34.222Z,31.22
2018-08-23T10:28:34.210Z,31.30
2018-08-23T10:29:34.199Z,31.19
2018-08-23T10:30:34.186Z,31.30
2018-08-23T10:31:34.188Z,31.30
2018-08-23T10:32:34.170Z,31.40
2018-08-23T10:33:34.159Z,31.34
2018-08-23T10:34:34.152Z,31.22
2018-08-23T10:35:34.134Z,31.20
2018-08-23T10:36:34.139Z,31.34
2018-08-23T10:37:34.110Z,31.20
2018-08-23T10:38:34.674Z,31.22
2018-08-23T10:39:34.089Z,31.18
2018-08-23T10:40:34.084Z,31.18
2018-08-23T10:41:34.091Z,31.19
2018-08-23T10:42:34.056Z,31.13
2018-08-23T10:43:34.048Z,31.13
2018-08-23T10:44:34.094Z,31.13
2018-08-23T10:45:34.030Z,31.13
2018-08-23T10:46:34.028Z,31.13
2018-08-23T10:47:34.003Z,31.13
2018-08-23T10:48:33.993Z,31.20
2018-08-23T10:49:33.983Z,31.20
2018-08-23T10:50:33.993Z,31.22
2018-08-23T10:51:33.973Z,31.20
2018-08-23T10:52:33.952Z,31.12
2018-08-23T10:53:33.940Z,31.12
2018-08-23T10:54:33.929Z,31.05
2018-08-23T10:55:33.917Z,31.07
2018-08-23T10:56:33.915Z,31.12
2018-08-23T10:57:33.896Z,31.15
2018-08-23T10:58:33.887Z,31.18
2018-08-23T10:59:33.873Z,31.28
2018-08-23T11:00:33.870Z,31.23
2018-08-23T11:01:33.862Z,31.20
2018-08-23T11:02:33.895Z,31.37
2018-08-23T11:03:33.831Z,31.31
2018-08-23T11:04:33.821Z,31.34
2018-08-23T11:05:33.808Z,31.35
2018-08-23T11:06:33.808Z,31.32
2018-08-23T11:07:33.788Z,31.31
2018-08-23T11:08:33.778Z,31.30
2018-08-23T11:09:33.813Z,31.32
2018-08-23T11:10:33.756Z,31.27
2018-08-23T11:11:33.758Z,31.34
2018-08-23T11:12:33.736Z,31.18
2018-08-23T11:13:33.722Z,31.34
2018-08-23T11:14:33.712Z,31.31
2018-08-23T11:15:33.702Z,31.38
2018-08-23T11:16:33.706Z,31.31
2018-08-23T11:17:33.680Z,31.16
2018-08-23T11:18:33.667Z,31.05
2018-08-23T11:19:33.658Z,31.09
2018-08-23T11:20:33.654Z,31.15
2018-08-23T11:21:33.649Z,31.22
2018-08-23T11:22:33.623Z,31.22
2018-08-23T11:23:33.616Z,31.35
2018-08-23T11:24:33.601Z,31.20
2018-08-23T11:25:33.593Z,31.19
2018-08-23T11:26:33.622Z,31.22
2018-08-23T11:27:33.570Z,31.18
2018-08-23T11:28:33.559Z,31.15
2018-08-23T11:29:33.578Z,31.16
2018-08-23T11:30:33.540Z,31.22
2018-08-23T11:31:33.537Z,31.28
2018-08-23T11:32:33.521Z,31.32
2018-08-23T11:33:33.518Z,31.19
2018-08-23T11:34:33.497Z,31.45
2018-08-23T11:35:33.498Z,31.52
2018-08-23T11:36:33.488Z,31.45
2018-08-23T11:37:33.462Z,31.50
2018-08-23T11:38:33.452Z,31.52
2018-08-23T11:39:33.441Z,31.69
2018-08-23T11:40:33.430Z,31.65
2018-08-23T11:41:33.430Z,31.57
2018-08-23T11:42:33.411Z,31.50
2018-08-23T11:43:33.401Z,31.62
2018-08-23T11:44:33.388Z,31.49
2018-08-23T11:45:33.377Z,31.40
2018-08-23T11:46:33.398Z,31.49
2018-08-23T11:47:33.356Z,31.53
2018-08-23T11:48:33.347Z,31.52
2018-08-23T11:49:33.333Z,31.56
2018-08-23T11:50:33.322Z,31.50
2018-08-23T11:51:33.311Z,31.57
2018-08-23T11:52:33.316Z,31.52
2018-08-23T11:53:33.506Z,31.38
2018-08-23T11:54:33.282Z,31.40
2018-08-23T11:55:33.270Z,31.46
2018-08-23T11:56:33.257Z,31.45
2018-08-23T11:57:33.257Z,31.52
2018-08-23T11:58:33.266Z,31.47
2018-08-23T11:59:33.225Z,31.65
2018-08-23T12:00:33.215Z,31.72
2018-08-23T12:01:33.204Z,31.69
2018-08-23T12:02:33.205Z,31.75
2018-08-23T12:03:33.183Z,31.65
2018-08-23T12:04:33.169Z,31.75
2018-08-23T12:05:33.162Z,31.68
2018-08-23T12:06:33.205Z,31.74
2018-08-23T12:07:33.148Z,31.79
2018-08-23T12:08:33.130Z,31.85
2018-08-23T12:09:33.118Z,31.82
2018-08-23T12:10:33.106Z,31.88
2018-08-23T12:11:33.094Z,31.75
2018-08-23T12:12:33.097Z,31.69
2018-08-23T12:13:33.076Z,31.57
2018-08-23T12:14:33.064Z,31.54
2018-08-23T12:15:33.123Z,31.40
2018-08-23T12:16:33.040Z,31.34
2018-08-23T12:17:33.040Z,31.16
2018-08-23T12:18:33.023Z,31.12
2018-08-23T12:19:33.010Z,30.97
2018-08-23T12:20:32.996Z,30.81
2018-08-23T12:21:32.988Z,30.79
2018-08-23T12:22:32.989Z,30.73
2018-08-23T12:23:32.967Z,30.73
2018-08-23T12:24:32.958Z,30.54
2018-08-23T12:25:33.023Z,30.56
2018-08-23T12:26:32.976Z,30.44
2018-08-23T12:27:32.932Z,30.45
2018-08-23T12:28:32.910Z,30.37
2018-08-23T12:29:32.902Z,30.26
2018-08-23T12:30:32.892Z,30.26
2018-08-23T12:31:32.936Z,30.28
2018-08-23T12:32:32.878Z,30.18
2018-08-23T12:33:32.861Z,30.11
2018-08-23T12:34:32.845Z,30.06
2018-08-23T12:35:32.838Z,29.94
2018-08-23T12:36:32.824Z,29.95
2018-08-23T12:37:32.858Z,29.89
2018-08-23T12:38:32.803Z,29.73
2018-08-23T12:39:32.793Z,29.55
2018-08-23T12:40:32.787Z,29.47
2018-08-23T12:41:32.770Z,29.33
2018-08-23T12:42:32.774Z,29.32
2018-08-23T12:43:32.853Z,29.30
2018-08-23T12:44:32.749Z,29.18
2018-08-23T12:45:32.728Z,29.12
2018-08-23T12:46:32.734Z,28.97
2018-08-23T12:47:32.717Z,28.79
2018-08-23T12:48:32.694Z,28.72
2018-08-23T12:49:32.734Z,28.65
2018-08-23T12:50:32.674Z,28.61
2018-08-23T12:51:32.662Z,28.52
2018-08-23T12:52:32.674Z,28.46
2018-08-23T12:53:32.640Z,28.45
2018-08-23T12:54:32.634Z,28.25
2018-08-23T12:55:32.620Z,28.25
2018-08-23T12:56:32.672Z,28.18
2018-08-23T12:57:32.597Z,28.09
2018-08-23T12:58:32.598Z,28.09
2018-08-23T12:59:32.576Z,27.96
2018-08-23T13:00:32.564Z,27.84
2018-08-23T13:01:32.584Z,27.80
2018-08-23T13:02:32.746Z,27.59
2018-08-23T13:03:32.600Z,27.50
2018-08-23T13:04:32.521Z,27.43
2018-08-23T13:05:32.510Z,27.15
2018-08-23T13:06:32.506Z,27.01
2018-08-23T13:07:32.572Z,27.06
2018-08-23T13:08:34.150Z,26.90
2018-08-23T13:09:32.469Z,26.69
2018-08-23T13:10:32.552Z,26.46
2018-08-23T13:11:32.454Z,26.38
2018-08-23T13:12:32.681Z,26.31
2018-08-23T13:13:32.444Z,26.20
2018-08-23T13:14:32.535Z,26.12
2018-08-23T13:15:32.406Z,25.94
2018-08-23T13:16:32.392Z,25.89
2018-08-23T13:17:32.406Z,25.75
2018-08-23T13:18:32.521Z,25.74
2018-08-23T13:19:32.361Z,25.41
2018-08-23T13:20:32.394Z,25.14
2018-08-23T13:21:32.725Z,24.94
2018-08-23T13:22:32.445Z,24.99
2018-08-23T13:23:32.653Z,24.99
2018-08-23T13:24:32.309Z,24.98
2018-08-23T13:25:32.295Z,24.90
2018-08-23T13:26:32.284Z,24.90
2018-08-23T13:27:32.382Z,25.01
2018-08-23T13:28:32.493Z,25.01
2018-08-23T13:29:32.272Z,25.05
2018-08-23T13:30:32.245Z,25.23
2018-08-23T13:31:32.231Z,25.39
2018-08-23T13:32:32.221Z,25.49
2018-08-23T13:33:32.209Z,25.61
2018-08-23T13:34:32.210Z,25.79
2018-08-23T13:35:32.271Z,25.90
2018-08-23T13:36:32.250Z,26.04
2018-08-23T13:37:32.171Z,26.13
2018-08-23T13:38:32.154Z,26.20
2018-08-23T13:39:32.155Z,26.28
2018-08-23T13:40:32.287Z,26.35
2018-08-23T13:41:32.258Z,26.34
2018-08-23T13:42:32.273Z,26.38
2018-08-23T13:43:32.243Z,26.39
2018-08-23T13:44:32.217Z,26.41
2018-08-23T13:45:32.288Z,26.41
2018-08-23T13:46:32.151Z,26.35
2018-08-23T13:47:32.065Z,26.47
2018-08-23T13:48:32.164Z,26.46
2018-08-23T13:49:32.048Z,26.46
2018-08-23T13:50:32.026Z,26.46
2018-08-23T13:51:32.026Z,26.46
2018-08-23T13:52:32.030Z,26.44
2018-08-23T13:53:32.161Z,26.46
2018-08-23T13:54:31.996Z,26.49
2018-08-23T13:55:31.972Z,26.53
2018-08-23T13:56:31.962Z,26.51
2018-08-23T13:57:31.949Z,26.44
2018-08-23T13:58:31.960Z,26.49
2018-08-23T13:59:31.943Z,26.42
2018-08-23T14:00:31.920Z,26.53
2018-08-23T14:01:31.911Z,26.41
2018-08-23T14:02:31.964Z,26.44
2018-08-23T14:03:31.887Z,26.47
2018-08-23T14:04:31.888Z,26.49
2018-08-23T14:05:31.864Z,26.49
2018-08-23T14:06:31.936Z,26.46
2018-08-23T14:07:31.851Z,26.44
2018-08-23T14:08:31.836Z,26.46
2018-08-23T14:09:32.234Z,26.41
2018-08-23T14:10:31.810Z,26.41
2018-08-23T14:11:31.798Z,26.31
2018-08-23T14:12:31.790Z,26.27
2018-08-23T14:13:31.777Z,26.21
2018-08-23T14:14:31.776Z,26.11
2018-08-23T14:15:31.756Z,26.09
2018-08-23T14:16:31.744Z,25.97
2018-08-23T14:17:31.840Z,25.90
2018-08-23T14:18:31.722Z,25.82
2018-08-23T14:19:31.741Z,25.79
2018-08-23T14:20:31.744Z,25.82
2018-08-23T14:21:31.691Z,25.78
2018-08-23T14:22:31.681Z,25.82
2018-08-23T14:23:31.674Z,25.72
2018-08-23T14:24:31.657Z,25.60
2018-08-23T14:25:31.659Z,25.51
2018-08-23T14:26:31.711Z,25.49
2018-08-23T14:27:31.627Z,25.41
2018-08-23T14:28:31.727Z,25.34
2018-08-23T14:29:31.602Z,25.38
2018-08-23T14:30:31.608Z,25.26
2018-08-23T14:31:31.582Z,25.14
2018-08-23T14:32:31.601Z,25.11
2018-08-23T14:33:31.561Z,25.02
2018-08-23T14:34:31.638Z,24.80
2018-08-23T14:35:31.551Z,24.75
2018-08-23T14:36:31.644Z,24.59
2018-08-23T14:37:31.629Z,24.39
2018-08-23T14:38:31.563Z,24.34
2018-08-23T14:39:31.493Z,24.29
2018-08-23T14:40:31.505Z,24.30
2018-08-23T14:41:31.475Z,24.23
2018-08-23T14:42:31.466Z,24.15
2018-08-23T14:43:31.451Z,24.16
2018-08-23T14:44:31.440Z,24.14
2018-08-23T14:45:31.440Z,24.16
2018-08-23T14:46:31.433Z,24.04
2018-08-23T14:47:31.409Z,23.86
2018-08-23T14:48:31.398Z,23.99
2018-08-23T14:49:31.385Z,23.87
2018-08-23T14:50:31.388Z,23.86
2018-08-23T14:51:31.369Z,23.82
2018-08-23T14:52:31.354Z,23.74
2018-08-23T14:53:31.813Z,23.77
2018-08-23T14:54:31.404Z,23.69
2018-08-23T14:55:31.465Z,23.53
2018-08-23T14:56:31.311Z,23.62
2018-08-23T14:57:31.303Z,23.56
2018-08-23T14:58:31.287Z,23.56
2018-08-23T14:59:31.279Z,23.54
2018-08-23T15:00:31.281Z,23.56
2018-08-23T15:01:31.257Z,23.44
2018-08-23T15:02:31.246Z,23.42
2018-08-23T15:03:31.233Z,23.50
2018-08-23T15:04:31.224Z,23.31
2018-08-23T15:05:31.224Z,23.18
2018-08-23T15:06:31.201Z,23.11
2018-08-23T15:07:31.216Z,23.18
2018-08-23T15:08:31.181Z,23.07
2018-08-23T15:09:31.231Z,23.19
2018-08-23T15:10:31.198Z,23.16
2018-08-23T15:11:31.147Z,23.09
2018-08-23T15:12:31.138Z,23.09
2018-08-23T15:13:31.125Z,23.21
2018-08-23T15:14:31.152Z,23.14
2018-08-23T15:15:31.179Z,23.15
2018-08-23T15:16:31.104Z,23.21
2018-08-23T15:17:31.084Z,23.18
2018-08-23T15:18:31.073Z,23.23
2018-08-23T15:19:31.062Z,23.31
2018-08-23T15:20:31.050Z,23.37
2018-08-23T15:21:31.052Z,23.37
2018-08-23T15:22:31.030Z,23.37
2018-08-23T15:23:31.018Z,23.32
2018-08-23T15:24:31.008Z,23.37
2018-08-23T15:25:31.073Z,23.32
2018-08-23T15:26:31.293Z,23.25
2018-08-23T15:27:30.977Z,23.21
2018-08-23T15:28:30.984Z,23.31
2018-08-23T15:29:30.956Z,23.26
2018-08-23T15:30:30.940Z,23.19
2018-08-23T15:31:30.943Z,23.19
2018-08-23T15:32:30.922Z,23.29
2018-08-23T15:33:30.909Z,23.16
2018-08-23T15:34:30.899Z,23.19
2018-08-23T15:35:30.889Z,23.16
2018-08-23T15:36:30.889Z,23.22
2018-08-23T15:37:30.866Z,23.19
2018-08-23T15:38:30.855Z,23.22
2018-08-23T15:39:30.918Z,23.22
2018-08-23T15:40:30.838Z,23.18
2018-08-23T15:41:30.831Z,23.21
2018-08-23T15:42:30.824Z,23.09
2018-08-23T15:43:30.802Z,23.11
2018-08-23T15:44:30.788Z,23.00
2018-08-23T15:45:30.781Z,23.01
2018-08-23T15:46:30.813Z,23.00
2018-08-23T15:47:30.757Z,22.97
2018-08-23T15:48:30.746Z,23.01
2018-08-23T15:49:30.734Z,22.93
2018-08-23T15:50:30.724Z,22.96
2018-08-23T15:51:30.724Z,22.88
2018-08-23T15:52:30.701Z,22.85
2018-08-23T15:53:30.692Z,22.76
2018-08-23T15:54:30.682Z,22.79
2018-08-23T15:55:30.804Z,22.84
2018-08-23T15:56:30.672Z,22.81
2018-08-23T15:57:30.655Z,22.72
2018-08-23T15:58:30.639Z,22.78
2018-08-23T15:59:30.631Z,22.79
2018-08-23T16:00:30.616Z,22.78
2018-08-23T16:01:30.869Z,22.67
2018-08-23T16:02:30.668Z,22.63
2018-08-23T16:03:30.585Z,22.51
2018-08-23T16:04:30.571Z,22.41
2018-08-23T16:05:30.644Z,22.39
2018-08-23T16:06:30.562Z,22.29
2018-08-23T16:07:30.540Z,22.26
2018-08-23T16:08:30.543Z,22.26
2018-08-23T16:09:30.518Z,22.15
2018-08-23T16:10:30.507Z,22.19
2018-08-23T16:11:30.507Z,22.26
2018-08-23T16:12:30.489Z,22.21
2018-08-23T16:13:30.498Z,22.05
2018-08-23T16:14:30.468Z,21.99
2018-08-23T16:15:30.453Z,22.05
2018-08-23T16:16:30.453Z,22.04
2018-08-23T16:17:30.432Z,21.96
2018-08-23T16:18:30.422Z,22.05
2018-08-23T16:19:30.411Z,21.98
2018-08-23T16:20:30.401Z,22.08
2018-08-23T16:21:30.403Z,22.02
2018-08-23T16:22:30.941Z,22.01
2018-08-23T16:23:30.387Z,22.01
2018-08-23T16:24:30.355Z,22.04
2018-08-23T16:25:30.355Z,22.05
2018-08-23T16:26:30.347Z,22.02
2018-08-23T16:27:30.327Z,21.98
2018-08-23T16:28:30.316Z,22.04
2018-08-23T16:29:30.303Z,22.02
2018-08-23T16:30:30.294Z,21.98
2018-08-23T16:31:30.292Z,22.01
2018-08-23T16:32:30.272Z,21.98
2018-08-23T16:33:30.260Z,22.01
2018-08-23T16:34:30.252Z,22.04
2018-08-23T16:35:30.239Z,21.96
2018-08-23T16:36:30.239Z,22.02
2018-08-23T16:37:30.240Z,21.99
2018-08-23T16:38:30.210Z,21.98
2018-08-23T16:39:30.240Z,22.04
2018-08-23T16:40:30.185Z,22.11
2018-08-23T16:41:30.184Z,22.09
2018-08-23T16:42:30.170Z,22.11
2018-08-23T16:43:30.161Z,22.06
2018-08-23T16:44:30.140Z,22.14
2018-08-23T16:45:30.146Z,22.19
2018-08-23T16:46:30.129Z,22.29
2018-08-23T16:47:30.112Z,22.26
2018-08-23T16:48:30.107Z,22.21
2018-08-23T16:49:30.088Z,22.21
2018-08-23T16:50:30.076Z,22.26
2018-08-23T16:51:30.078Z,22.27
2018-08-23T16:52:30.055Z,22.29